createdAt,value
2023-05-21T00:00:08.342Z,41529.91
2023-05-21T00:01:17.236Z,40010.13
2023-05-21T00:02:19.843Z,38736.84
2023-05-21T00:03:22.227Z,37956.94
2023-05-21T00:04:25.508Z,37792.97
2023-05-21T00:05:27.687Z,36882.84
2023-05-21T00:06:29.974Z,35231.13
2023-05-21T00:07:33.196Z,34042.81
2023-05-21T00:08:35.672Z,34563.22
2023-05-21T00:09:40.960Z,33140.94
2023-05-21T00:10:43.162Z,31264.84
2023-05-21T00:11:45.431Z,28541.84
2023-05-21T00:12:47.679Z,26178.84
2023-05-21T00:13:49.872Z,23947.66
2023-05-21T00:14:52.047Z,20971.66
2023-05-21T00:15:54.265Z,20177.91
2023-05-21T00:16:56.461Z,19841.41
2023-05-21T00:17:58.681Z,19526.19
2023-05-21T00:19:02.210Z,18566.06
2023-05-21T00:20:07.333Z,17584.31
2023-05-21T00:21:09.522Z,17166.34
2023-05-21T00:22:12.014Z,16687.06
2023-05-21T00:23:14.171Z,17330.28
2023-05-21T00:24:16.457Z,17534.31
2023-05-21T00:25:18.745Z,17124.69
2023-05-21T00:26:21.657Z,16087.28
2023-05-21T00:27:24.667Z,16974.22
2023-05-21T00:28:26.872Z,17578.19
2023-05-21T00:29:30.132Z,16429.91
2023-05-21T00:30:32.397Z,15420.91
2023-05-21T00:31:34.671Z,14574.22
2023-05-21T00:32:37.068Z,15585.88
2023-05-21T00:33:39.428Z,15245.84
2023-05-21T00:34:41.611Z,15804.72
2023-05-21T00:35:43.952Z,16857.63
2023-05-21T00:36:46.496Z,16265.78
2023-05-21T00:37:48.675Z,17553.06
2023-05-21T00:38:51.885Z,15792.19
2023-05-21T00:39:54.630Z,18408.66
2023-05-21T00:40:59.726Z,17169.28
2023-05-21T00:42:03.899Z,16531.91
2023-05-21T00:43:06.106Z,16513.34
2023-05-21T00:44:08.552Z,15385.22
2023-05-21T00:45:10.981Z,14924.09
2023-05-21T00:46:19.695Z,9152.78
2023-05-21T00:47:22.536Z,12080.09
2023-05-21T00:48:25.331Z,10803.91
2023-05-21T00:49:28.216Z,9240.69
2023-05-21T00:50:31.998Z,7311.75
2023-05-21T00:51:34.186Z,9171.97
2023-05-21T00:52:42.049Z,10926.22
2023-05-21T00:53:45.998Z,8956.19
2023-05-21T00:54:50.561Z,6772.94
2023-05-21T00:55:53.161Z,11292.75
2023-05-21T00:56:56.254Z,11830.22
2023-05-21T00:57:58.490Z,15038.19
2023-05-21T00:59:05.500Z,15530.56
2023-05-21T01:00:09.076Z,13982.09
2023-05-21T01:01:13.723Z,12848.63
2023-05-21T01:02:18.082Z,16326.50
2023-05-21T01:03:20.714Z,18718.75
2023-05-21T01:04:24.006Z,17642.69
2023-05-21T01:05:28.160Z,18088.25
2023-05-21T01:06:34.554Z,23126.09
2023-05-21T01:07:39.859Z,20521.75
2023-05-21T01:08:42.126Z,24341.81
2023-05-21T01:09:44.448Z,24302.94
2023-05-21T01:10:46.688Z,24222.97
2023-05-21T01:11:51.220Z,20659.63
2023-05-21T01:12:55.156Z,23960.53
2023-05-21T01:13:57.556Z,24176.25
2023-05-21T01:15:02.106Z,20675.84
2023-05-21T01:16:06.709Z,21253.31
2023-05-21T01:17:10.574Z,22840.34
2023-05-21T01:18:14.379Z,24088.69
2023-05-21T01:19:21.891Z,19727.84
2023-05-21T01:20:24.871Z,21029.88
2023-05-21T01:21:29.414Z,19884.47
2023-05-21T01:22:32.571Z,21449.59
2023-05-21T01:23:34.932Z,23312.59
2023-05-21T01:24:37.869Z,23880.19
2023-05-21T01:25:42.303Z,24706.69
2023-05-21T01:26:46.731Z,24742.81
2023-05-21T01:27:49.424Z,24182.69
2023-05-21T01:28:52.829Z,27361.75
2023-05-21T01:29:55.458Z,27573.09
2023-05-21T01:31:02.738Z,24570.88
2023-05-21T01:32:17.789Z,23458.59
2023-05-21T01:33:33.838Z,25167.47
2023-05-21T01:34:55.988Z,25759.38
2023-05-21T01:36:08.689Z,27209.56
2023-05-21T01:37:33.877Z,29892.78
2023-05-21T01:38:49.043Z,30956.25
2023-05-21T01:40:19.499Z,29090.38
2023-05-21T01:41:22.363Z,31828.59
2023-05-21T01:42:25.747Z,29950.28
2023-05-21T01:43:29.344Z,32496.25
2023-05-21T01:44:33.494Z,29612.97
2023-05-21T01:45:39.611Z,27737.69
2023-05-21T01:46:41.851Z,32187.88
2023-05-21T01:47:50.389Z,28203.94
2023-05-21T01:48:54.489Z,32347.81
2023-05-21T01:49:57.024Z,33139.81
2023-05-21T01:51:02.636Z,29292.09
2023-05-21T01:52:05.305Z,35670.06
2023-05-21T01:53:07.880Z,36938.34
2023-05-21T01:54:10.108Z,37717.00
2023-05-21T01:55:13.547Z,37201.66
2023-05-21T01:56:16.125Z,36254.31
2023-05-21T01:57:18.675Z,35901.13
2023-05-21T01:58:22.802Z,35376.47
2023-05-21T01:59:25.078Z,37880.56
2023-05-21T02:00:29.491Z,36930.38
2023-05-21T02:01:31.765Z,35329.16
2023-05-21T02:02:34.095Z,35952.84
2023-05-21T02:03:36.694Z,36584.56
2023-05-21T02:04:41.329Z,35457.19
2023-05-21T02:05:43.874Z,33682.03
2023-05-21T02:06:46.223Z,34204.19
2023-05-21T02:07:50.969Z,30913.94
2023-05-21T02:08:53.150Z,34662.53
2023-05-21T02:09:55.846Z,36253.13
2023-05-21T02:10:58.025Z,37752.28
2023-05-21T02:12:01.307Z,39856.75
2023-05-21T02:13:03.772Z,42283.38
2023-05-21T02:14:06.358Z,43301.91
2023-05-21T02:15:08.991Z,43672.59
2023-05-21T02:16:14.625Z,42198.03
2023-05-21T02:17:17.466Z,44392.00
2023-05-21T02:18:21.351Z,42782.34
2023-05-21T02:19:23.688Z,43481.63
2023-05-21T02:20:26.072Z,43545.94
2023-05-21T02:21:28.822Z,43493.78
2023-05-21T02:22:30.994Z,43270.69
2023-05-21T02:23:33.150Z,42700.19
2023-05-21T02:24:35.356Z,43590.06
2023-05-21T02:25:37.913Z,43836.25
2023-05-21T02:26:40.324Z,44607.19
2023-05-21T02:27:43.220Z,41898.28
2023-05-21T02:28:45.469Z,45188.53
2023-05-21T02:29:47.633Z,46907.16
2023-05-21T02:30:49.876Z,47494.84
2023-05-21T02:31:52.089Z,47897.69
2023-05-21T02:32:55.311Z,45763.00
2023-05-21T02:33:58.051Z,50126.78
2023-05-21T02:35:04.424Z,48209.13
2023-05-21T02:36:12.914Z,48635.16
2023-05-21T02:37:15.071Z,51055.50
2023-05-21T02:38:19.497Z,51340.00
2023-05-21T02:39:22.284Z,52655.63
2023-05-21T02:40:25.183Z,52650.31
2023-05-21T02:41:27.564Z,52891.44
2023-05-21T02:42:30.160Z,52303.06
2023-05-21T02:43:32.423Z,51804.66
2023-05-21T02:44:34.767Z,51790.72
2023-05-21T02:45:37.397Z,51218.34
2023-05-21T02:46:40.032Z,49839.81
2023-05-21T02:47:42.327Z,50551.13
2023-05-21T02:48:44.626Z,51142.84
2023-05-21T02:49:47.195Z,48574.28
2023-05-21T02:50:49.838Z,48184.00
2023-05-21T02:51:52.033Z,47730.69
2023-05-21T02:52:54.442Z,48937.31
2023-05-21T02:53:56.633Z,49404.50
2023-05-21T02:54:58.853Z,49493.53
2023-05-21T02:56:01.187Z,48734.66
2023-05-21T02:57:03.723Z,47891.91
2023-05-21T02:58:06.221Z,46534.97
2023-05-21T02:59:08.437Z,44720.63
2023-05-21T03:00:11.971Z,43270.31
2023-05-21T03:01:15.419Z,44145.75
2023-05-21T03:02:17.905Z,45855.41
2023-05-21T03:03:20.431Z,46956.94
2023-05-21T03:04:22.837Z,46293.38
2023-05-21T03:05:25.102Z,46138.16
2023-05-21T03:06:27.338Z,47412.78
2023-05-21T03:07:29.565Z,47946.13
2023-05-21T03:08:32.200Z,48244.69
2023-05-21T03:09:34.453Z,46294.16
2023-05-21T03:10:36.609Z,45183.09
2023-05-21T03:11:38.807Z,45675.84
2023-05-21T03:12:41.048Z,45380.47
2023-05-21T03:13:43.308Z,44991.25
2023-05-21T03:14:46.548Z,45616.03
2023-05-21T03:15:49.028Z,45341.06
2023-05-21T03:16:51.528Z,44868.75
2023-05-21T03:17:54.228Z,44786.44
2023-05-21T03:18:56.647Z,44532.00
2023-05-21T03:19:58.881Z,45132.91
2023-05-21T03:21:01.669Z,43694.72
2023-05-21T03:22:04.576Z,42021.94
2023-05-21T03:23:14.235Z,41418.13
2023-05-21T03:24:18.728Z,41203.09
2023-05-21T03:25:21.691Z,41303.56
2023-05-21T03:26:30.156Z,35586.41
2023-05-21T03:27:33.680Z,40459.28
2023-05-21T03:28:39.282Z,40436.25
2023-05-21T03:29:43.207Z,39971.44
2023-05-21T03:30:49.595Z,39352.22
2023-05-21T03:32:10.577Z,38839.34
2023-05-21T03:33:14.117Z,36991.69
2023-05-21T03:34:20.159Z,39671.53
2023-05-21T03:35:23.464Z,40443.66
2023-05-21T03:36:25.827Z,42712.03
2023-05-21T03:37:28.019Z,43328.22
2023-05-21T03:38:30.767Z,42846.59
2023-05-21T03:39:32.998Z,42744.09
2023-05-21T03:40:35.599Z,42810.09
2023-05-21T03:41:38.121Z,43284.22
2023-05-21T03:42:44.578Z,43349.72
2023-05-21T03:43:46.852Z,42752.00
2023-05-21T03:44:49.155Z,42552.00
2023-05-21T03:46:17.405Z,42984.09
2023-05-21T03:47:25.762Z,42617.56
2023-05-21T03:48:29.029Z,42985.19
2023-05-21T03:49:31.298Z,43576.47
2023-05-21T03:50:34.388Z,44244.94
2023-05-21T03:51:38.309Z,44553.97
2023-05-21T03:52:40.559Z,44783.75
2023-05-21T03:53:42.748Z,45153.97
2023-05-21T03:54:44.955Z,44774.09
2023-05-21T03:55:54.621Z,43137.47
2023-05-21T03:56:59.956Z,43612.19
2023-05-21T03:58:03.360Z,43238.41
2023-05-21T03:59:05.580Z,43732.66
2023-05-21T04:00:09.027Z,43206.94
2023-05-21T04:01:18.228Z,42319.88
2023-05-21T04:02:22.182Z,39410.50
2023-05-21T04:03:24.588Z,39383.41
2023-05-21T04:04:29.514Z,38421.34
2023-05-21T04:05:32.030Z,38321.63
2023-05-21T04:06:34.437Z,38474.56
2023-05-21T04:07:38.335Z,38686.53
2023-05-21T04:08:40.561Z,39588.34
2023-05-21T04:09:42.733Z,39273.91
2023-05-21T04:10:44.883Z,39140.88
2023-05-21T04:11:47.883Z,38458.88
2023-05-21T04:12:52.489Z,38320.47
2023-05-21T04:13:55.654Z,37590.97
2023-05-21T04:14:58.871Z,36362.38
2023-05-21T04:16:01.159Z,35392.84
2023-05-21T04:17:06.943Z,34451.22
2023-05-21T04:18:09.302Z,35753.13
2023-05-21T04:19:11.606Z,35617.28
2023-05-21T04:20:13.975Z,34794.72
2023-05-21T04:21:16.363Z,34895.91
2023-05-21T04:22:19.033Z,35682.38
2023-05-21T04:23:23.628Z,37517.47
2023-05-21T04:24:27.064Z,37497.34
2023-05-21T04:25:36.830Z,37113.06
2023-05-21T04:26:42.182Z,37495.88
2023-05-21T04:27:47.667Z,38180.97
2023-05-21T04:28:50.445Z,38367.56
2023-05-21T04:29:54.693Z,38873.50
2023-05-21T04:30:58.737Z,40481.66
2023-05-21T04:32:01.015Z,42254.34
2023-05-21T04:33:03.557Z,42835.31
2023-05-21T04:34:06.321Z,44437.63
2023-05-21T04:35:08.699Z,44827.56
2023-05-21T04:36:11.506Z,44709.53
2023-05-21T04:37:13.797Z,44556.78
2023-05-21T04:38:19.488Z,44412.09
2023-05-21T04:39:21.713Z,45247.75
2023-05-21T04:40:24.669Z,45660.94
2023-05-21T04:41:27.085Z,45695.81
2023-05-21T04:42:30.474Z,47046.00
2023-05-21T04:43:33.171Z,45895.97
2023-05-21T04:44:35.569Z,46765.00
2023-05-21T04:45:39.115Z,47865.97
2023-05-21T04:46:41.917Z,48580.94
2023-05-21T04:47:44.371Z,48902.91
2023-05-21T04:48:46.831Z,48450.56
2023-05-21T04:49:50.842Z,47446.84
2023-05-21T04:50:53.712Z,46447.41
2023-05-21T04:51:57.189Z,43261.53
2023-05-21T04:52:59.588Z,45779.47
2023-05-21T04:54:03.510Z,46578.47
2023-05-21T04:55:09.668Z,44324.22
2023-05-21T04:56:11.850Z,49714.03
2023-05-21T04:57:14.219Z,51658.88
2023-05-21T04:58:18.387Z,51933.34
2023-05-21T04:59:22.864Z,51214.16
2023-05-21T05:00:26.196Z,48839.63
2023-05-21T05:01:29.739Z,46617.56
2023-05-21T05:02:32.057Z,44328.72
2023-05-21T05:03:35.959Z,42842.88
2023-05-21T05:04:38.534Z,41057.56
2023-05-21T05:05:42.001Z,40325.44
2023-05-21T05:06:44.237Z,36582.88
2023-05-21T05:07:46.562Z,32505.91
2023-05-21T05:08:49.435Z,28318.16
2023-05-21T05:09:52.071Z,26019.44
2023-05-21T05:10:54.311Z,24273.09
2023-05-21T05:11:56.571Z,24102.72
2023-05-21T05:13:00.146Z,22016.75
2023-05-21T05:14:03.433Z,19666.97
2023-05-21T05:15:06.289Z,18402.78
2023-05-21T05:16:09.291Z,18314.44
2023-05-21T05:17:14.636Z,17459.06
2023-05-21T05:18:18.613Z,15702.06
2023-05-21T05:19:20.931Z,17370.03
2023-05-21T05:20:23.306Z,17315.41
2023-05-21T05:21:26.114Z,17724.56
2023-05-21T05:22:28.380Z,18813.28
2023-05-21T05:23:30.768Z,20739.34
2023-05-21T05:24:33.004Z,22251.75
2023-05-21T05:25:35.241Z,22510.69
2023-05-21T05:26:38.262Z,23278.50
2023-05-21T05:27:40.739Z,22334.31
2023-05-21T05:28:43.147Z,23077.22
2023-05-21T05:29:45.357Z,23352.34
2023-05-21T05:30:47.627Z,23677.69
2023-05-21T05:31:57.917Z,20386.97
2023-05-21T05:33:00.155Z,20572.38
2023-05-21T05:34:02.439Z,21259.97
2023-05-21T05:35:06.027Z,20395.06
2023-05-21T05:36:08.892Z,21158.16
2023-05-21T05:37:11.965Z,22172.06
2023-05-21T05:38:14.213Z,22288.28
2023-05-21T05:39:17.282Z,21956.06
2023-05-21T05:40:21.032Z,23344.94
2023-05-21T05:41:23.346Z,24500.22
2023-05-21T05:42:26.050Z,24469.34
2023-05-21T05:43:28.598Z,23631.06
2023-05-21T05:44:32.707Z,24106.91
2023-05-21T05:45:35.440Z,24450.72
2023-05-21T05:46:41.997Z,26065.97
2023-05-21T05:47:44.515Z,26165.56
2023-05-21T05:48:46.800Z,27936.75
2023-05-21T05:49:49.006Z,28923.84
2023-05-21T05:50:54.623Z,28793.56
2023-05-21T05:51:57.208Z,30804.22
2023-05-21T05:52:59.747Z,30731.56
2023-05-21T05:54:01.940Z,30729.47
2023-05-21T05:55:04.650Z,28835.28
2023-05-21T05:56:07.291Z,28493.94
2023-05-21T05:57:09.560Z,28996.38
2023-05-21T05:58:12.260Z,29017.31
2023-05-21T05:59:33.814Z,28843.03
2023-05-21T06:00:36.834Z,27156.34
2023-05-21T06:01:40.056Z,25833.53
2023-05-21T06:02:42.535Z,25639.03
2023-05-21T06:03:45.314Z,24987.78
2023-05-21T06:04:50.496Z,21756.09
2023-05-21T06:05:52.976Z,20563.19
2023-05-21T06:06:59.793Z,20121.47
2023-05-21T06:08:02.373Z,20505.13
2023-05-21T06:09:04.627Z,20346.97
2023-05-21T06:10:07.456Z,14918.47
2023-05-21T06:11:10.917Z,7756.50
2023-05-21T06:12:16.009Z,1095.47
2023-05-21T06:13:18.223Z,494.25
2023-05-21T06:14:20.601Z,5713.53
2023-05-21T06:15:24.217Z,10286.94
2023-05-21T06:16:26.672Z,11595.81
2023-05-21T06:17:28.925Z,14541.84
2023-05-21T06:18:31.155Z,19780.06
2023-05-21T06:19:33.474Z,22069.78
2023-05-21T06:20:36.361Z,20757.06
2023-05-21T06:21:38.544Z,21086.78
2023-05-21T06:22:41.471Z,25354.25
2023-05-21T06:23:44.936Z,26669.91
2023-05-21T06:24:47.245Z,28639.19
2023-05-21T06:25:50.525Z,31931.25
2023-05-21T06:26:53.250Z,33899.38
2023-05-21T06:27:56.894Z,33575.88
2023-05-21T06:29:02.414Z,38838.31
2023-05-21T06:30:05.308Z,38179.38
2023-05-21T06:31:08.414Z,41478.81
2023-05-21T06:32:13.683Z,45440.00
2023-05-21T06:33:17.245Z,44455.41
2023-05-21T06:34:19.877Z,45450.28
2023-05-21T06:35:22.082Z,47771.38
2023-05-21T06:36:26.161Z,56376.47
2023-05-21T06:37:28.344Z,56374.72
2023-05-21T06:38:31.070Z,61357.44
2023-05-21T06:39:34.249Z,61352.59
2023-05-21T06:40:36.625Z,64986.72
2023-05-21T06:41:38.967Z,62004.94
2023-05-21T06:42:59.903Z,64986.72
2023-05-21T06:44:15.697Z,73304.56
2023-05-21T06:45:36.654Z,74940.06
2023-05-21T06:46:49.674Z,66642.19
2023-05-21T06:47:53.180Z,68306.25
2023-05-21T06:48:55.504Z,71978.09
2023-05-21T06:49:59.292Z,76978.72
2023-05-21T06:51:01.471Z,77980.00
2023-05-21T06:52:03.794Z,83327.31
2023-05-21T06:53:06.316Z,85015.53
2023-05-21T06:54:08.713Z,93062.59
2023-05-21T06:55:13.321Z,108481.22
2023-05-21T06:56:35.853Z,124617.25
2023-05-21T06:57:38.901Z,126639.13
2023-05-21T06:58:41.265Z,139179.09
2023-05-21T06:59:43.871Z,128337.09
2023-05-21T07:00:47.152Z,135039.16
2023-05-21T07:01:49.845Z,135233.66
2023-05-21T07:02:52.247Z,137231.81
2023-05-21T07:03:54.777Z,148583.88
2023-05-21T07:04:56.958Z,149374.75
2023-05-21T07:05:59.182Z,149345.56
2023-05-21T07:07:04.484Z,149369.88
2023-05-21T07:08:08.245Z,149382.03
2023-05-21T07:09:10.761Z,149389.31
2023-05-21T07:10:13.389Z,149455.00
2023-05-21T07:11:16.245Z,149452.56
2023-05-21T07:12:18.677Z,149491.47
2023-05-21T07:13:21.292Z,149484.19
2023-05-21T07:14:25.485Z,149479.31
2023-05-21T07:15:27.884Z,149469.63
2023-05-21T07:16:30.685Z,149418.50
2023-05-21T07:17:33.773Z,149406.38
2023-05-21T07:18:36.176Z,149396.59
2023-05-21T07:19:38.380Z,149374.75
2023-05-21T07:20:40.628Z,149396.59
2023-05-21T07:21:46.468Z,149411.22
2023-05-21T07:22:48.716Z,146163.72
2023-05-21T07:23:52.499Z,149394.19
2023-05-21T07:24:54.748Z,149430.66
2023-05-21T07:25:57.126Z,149413.66
2023-05-21T07:27:01.847Z,149472.03
2023-05-21T07:28:06.818Z,149467.19
2023-05-21T07:29:10.836Z,149534.09
2023-05-21T07:30:14.819Z,149547.44
2023-05-21T07:31:17.162Z,149540.16
2023-05-21T07:32:22.991Z,149549.88
2023-05-21T07:33:25.209Z,149531.66
2023-05-21T07:34:28.057Z,149523.09
2023-05-21T07:35:30.253Z,149571.84
2023-05-21T07:36:33.723Z,149593.72
2023-05-21T07:37:36.823Z,149586.41
2023-05-21T07:38:40.301Z,149545.03
2023-05-21T07:39:43.689Z,149557.16
2023-05-21T07:40:47.436Z,149532.88
2023-05-21T07:41:50.488Z,149586.41
2023-05-21T07:42:52.765Z,149587.63
2023-05-21T07:43:57.625Z,149594.97
2023-05-21T07:45:00.094Z,149562.13
2023-05-21T07:46:03.217Z,149641.19
2023-05-21T07:47:05.699Z,149686.19
2023-05-21T07:48:08.039Z,149717.84
2023-05-21T07:49:16.851Z,149697.19
2023-05-21T07:50:20.479Z,149666.75
2023-05-21T07:51:23.085Z,149681.34
2023-05-21T07:52:25.577Z,149704.47
2023-05-21T07:53:32.201Z,149745.84
2023-05-21T07:54:36.694Z,149665.53
2023-05-21T07:55:39.054Z,149698.41
2023-05-21T07:56:41.479Z,149732.47
2023-05-21T07:57:47.909Z,149749.50
2023-05-21T07:58:52.244Z,149764.13
2023-05-21T07:59:54.856Z,149770.19
2023-05-21T08:00:57.294Z,149753.13
2023-05-21T08:02:00.875Z,149787.28
2023-05-21T08:03:03.108Z,149800.69
2023-05-21T08:04:06.694Z,149797.03
2023-05-21T08:05:10.704Z,149825.03
2023-05-21T08:06:13.247Z,149798.25
2023-05-21T08:07:19.805Z,149856.66
2023-05-21T08:08:22.273Z,149881.03
2023-05-21T08:09:26.355Z,149885.88
2023-05-21T08:10:28.587Z,149879.81
2023-05-21T08:11:31.658Z,149859.13
2023-05-21T08:12:33.987Z,149807.97
2023-05-21T08:13:36.386Z,149810.41
2023-05-21T08:14:40.114Z,149799.47
2023-05-21T08:15:43.103Z,149834.78
2023-05-21T08:16:46.699Z,149900.53
2023-05-21T08:17:49.007Z,149888.31
2023-05-21T08:18:51.584Z,149911.47
2023-05-21T08:19:54.041Z,149956.56
2023-05-21T08:20:56.731Z,150015.00
2023-05-21T08:22:00.297Z,150022.38
2023-05-21T08:23:02.606Z,150024.78
2023-05-21T08:24:12.189Z,150049.13
2023-05-21T08:25:14.596Z,150066.19
2023-05-21T08:26:17.127Z,150079.56
2023-05-21T08:27:19.461Z,150073.50
2023-05-21T08:28:23.485Z,150125.91
2023-05-21T08:29:27.072Z,150085.66
2023-05-21T08:30:30.240Z,150142.94
2023-05-21T08:31:33.126Z,150212.44
2023-05-21T08:32:35.660Z,150183.13
2023-05-21T08:33:38.497Z,150217.28
2023-05-21T08:34:41.523Z,150172.19
2023-05-21T08:36:02.320Z,150155.16
2023-05-21T08:37:06.166Z,150225.84
2023-05-21T08:38:28.809Z,150275.81
2023-05-21T08:39:46.899Z,150224.63
2023-05-21T08:40:51.492Z,150272.16
2023-05-21T08:42:01.489Z,150289.22
2023-05-21T08:43:03.939Z,150231.94
2023-05-21T08:44:21.077Z,150259.97
2023-05-21T08:45:23.888Z,150309.91
2023-05-21T08:46:30.341Z,150314.78
2023-05-21T08:47:36.153Z,150397.75
2023-05-21T08:48:40.749Z,150333.09
2023-05-21T08:49:44.973Z,150469.69
2023-05-21T08:50:47.575Z,150484.34
2023-05-21T08:51:56.213Z,150517.25
2023-05-21T08:53:04.041Z,150579.47
2023-05-21T08:54:13.994Z,150644.09
2023-05-21T08:55:16.566Z,150625.84
2023-05-21T08:56:18.788Z,150634.34
2023-05-21T08:57:26.895Z,150795.44
2023-05-21T08:58:32.225Z,150817.44
2023-05-21T08:59:36.923Z,150854.03
2023-05-21T09:00:41.497Z,150959.03
2023-05-21T09:01:46.059Z,150952.94
2023-05-21T09:03:02.782Z,151081.13
2023-05-21T09:04:19.587Z,151024.97
2023-05-21T09:05:25.209Z,151115.38
2023-05-21T09:06:27.887Z,151180.09
2023-05-21T09:07:34.298Z,151110.50
2023-05-21T09:08:56.228Z,151254.63
2023-05-21T09:10:12.160Z,151276.63
2023-05-21T09:11:15.020Z,151418.38
2023-05-21T09:12:26.157Z,151474.59
2023-05-21T09:13:31.102Z,151500.22
2023-05-21T09:14:34.034Z,151546.72
2023-05-21T09:15:47.045Z,151543.03
2023-05-21T09:16:50.840Z,151387.78
2023-05-21T09:17:54.276Z,151406.13
2023-05-21T09:19:14.736Z,151420.81
2023-05-21T09:20:17.610Z,151535.72
2023-05-21T09:21:27.725Z,151566.22
2023-05-21T09:22:33.904Z,151579.75
2023-05-21T09:23:36.552Z,151418.38
2023-05-21T09:24:38.840Z,151570.00
2023-05-21T09:25:42.020Z,151612.75
2023-05-21T09:26:47.848Z,151684.88
2023-05-21T09:27:50.992Z,151612.75
2023-05-21T09:28:59.393Z,151645.75
2023-05-21T09:30:03.967Z,151596.84
2023-05-21T09:31:06.785Z,151620.09
2023-05-21T09:32:09.821Z,151577.31
2023-05-21T09:33:31.083Z,151675.09
2023-05-21T09:34:36.282Z,151676.34
2023-05-21T09:35:45.426Z,151525.91
2023-05-21T09:36:49.330Z,151603.00
2023-05-21T09:37:53.678Z,151483.16
2023-05-21T09:38:57.746Z,151519.81
2023-05-21T09:40:00.063Z,151562.56
2023-05-21T09:41:05.663Z,151461.13
2023-05-21T09:42:07.850Z,151437.97
2023-05-21T09:43:14.740Z,151478.28
2023-05-21T09:44:17.002Z,151376.81
2023-05-21T09:45:19.953Z,151392.66
2023-05-21T09:46:26.343Z,151382.91
2023-05-21T09:47:28.580Z,151369.50
2023-05-21T09:48:42.019Z,151364.56
2023-05-21T09:49:52.956Z,151354.81
2023-05-21T09:51:07.249Z,151396.31
2023-05-21T09:52:09.540Z,151397.56
2023-05-21T09:53:15.663Z,151356.03
2023-05-21T09:54:17.936Z,151239.94
2023-05-21T09:55:23.479Z,151292.50
2023-05-21T09:56:28.875Z,151205.75
2023-05-21T09:57:31.085Z,151308.41
2023-05-21T09:58:34.465Z,151338.94
2023-05-21T09:59:40.190Z,151280.28
2023-05-21T10:00:42.803Z,151287.63
2023-05-21T10:01:45.737Z,151246.03
2023-05-21T10:02:49.597Z,151285.16
2023-05-21T10:03:57.190Z,151359.69
2023-05-21T10:05:00.645Z,151411.00
2023-05-21T10:06:03.565Z,151442.84
2023-05-21T10:07:05.857Z,151469.72
2023-05-21T10:08:11.529Z,151495.34
2023-05-21T10:09:18.839Z,151422.03
2023-05-21T10:10:22.748Z,151428.16
2023-05-21T10:11:31.166Z,151425.72
2023-05-21T10:12:34.744Z,151396.31
2023-05-21T10:13:41.538Z,151381.69
2023-05-21T10:14:48.327Z,151406.13
2023-05-21T10:15:57.239Z,151480.72
2023-05-21T10:17:00.943Z,151477.06
2023-05-21T10:18:03.834Z,151415.94
2023-05-21T10:19:10.854Z,151453.81
2023-05-21T10:20:13.468Z,151401.22
2023-05-21T10:21:16.921Z,151369.50
2023-05-21T10:22:19.468Z,151359.69
2023-05-21T10:23:24.003Z,151423.28
2023-05-21T10:24:27.304Z,151477.06
2023-05-21T10:25:31.427Z,151389.00
2023-05-21T10:26:34.478Z,151376.81
2023-05-21T10:27:37.633Z,151401.22
2023-05-21T10:28:40.497Z,151467.25
2023-05-21T10:29:44.614Z,151539.38
2023-05-21T10:30:47.125Z,151387.78
2023-05-21T10:31:52.648Z,151305.97
2023-05-21T10:32:57.236Z,151340.16
2023-05-21T10:34:01.320Z,151431.81
2023-05-21T10:35:03.870Z,151445.28
2023-05-21T10:36:06.429Z,151638.44
2023-05-21T10:37:10.211Z,151693.41
2023-05-21T10:38:14.442Z,151640.88
2023-05-21T10:39:19.832Z,151615.19
2023-05-21T10:40:22.157Z,151678.78
2023-05-21T10:41:26.141Z,151736.28
2023-05-21T10:42:31.264Z,151781.53
2023-05-21T10:43:57.374Z,151899.00
2023-05-21T10:45:23.530Z,151919.75
2023-05-21T10:47:00.403Z,151864.69
2023-05-21T10:48:20.237Z,151825.53
2023-05-21T10:49:28.225Z,151787.63
2023-05-21T10:50:39.555Z,151875.75
2023-05-21T10:51:53.936Z,151848.78
2023-05-21T10:53:10.692Z,151941.78
2023-05-21T10:54:24.993Z,152120.44
2023-05-21T10:55:29.998Z,152246.56
2023-05-21T10:56:39.726Z,152288.16
2023-05-21T10:57:51.117Z,152299.22
2023-05-21T10:59:08.723Z,152198.84
2023-05-21T11:00:13.430Z,152251.44
2023-05-21T11:01:19.341Z,152394.75
2023-05-21T11:02:25.363Z,152446.19
2023-05-21T11:03:29.994Z,152402.09
2023-05-21T11:04:32.656Z,152492.75
2023-05-21T11:05:50.835Z,152392.31
2023-05-21T11:06:53.162Z,152370.25
2023-05-21T11:08:01.563Z,152470.69
2023-05-21T11:09:13.930Z,152301.69
2023-05-21T11:10:36.727Z,152348.19
2023-05-21T11:11:43.874Z,152380.03
2023-05-21T11:13:08.472Z,152321.25
2023-05-21T11:14:38.202Z,152326.19
2023-05-21T11:15:58.590Z,152377.59
2023-05-21T11:17:12.823Z,152410.63
2023-05-21T11:18:15.153Z,152391.03
2023-05-21T11:19:18.024Z,152582.16
2023-05-21T11:20:22.798Z,152523.31
2023-05-21T11:21:30.504Z,152482.91
2023-05-21T11:22:35.277Z,152643.41
2023-05-21T11:23:53.774Z,152741.47
2023-05-21T11:25:01.613Z,152904.47
2023-05-21T11:26:03.838Z,152995.25
2023-05-21T11:27:07.050Z,152995.25
2023-05-21T11:28:09.639Z,153077.34
2023-05-21T11:29:12.028Z,153209.81
2023-05-21T11:30:19.352Z,153159.56
2023-05-21T11:31:27.010Z,152997.69
2023-05-21T11:32:29.849Z,153132.56
2023-05-21T11:33:33.733Z,153198.78
2023-05-21T11:34:46.445Z,153149.72
2023-05-21T11:35:54.493Z,153110.50
2023-05-21T11:37:23.424Z,153184.03
2023-05-21T11:38:30.969Z,153228.25
2023-05-21T11:39:40.295Z,153269.94
2023-05-21T11:40:56.564Z,153442.91
2023-05-21T11:42:04.156Z,153409.81
2023-05-21T11:43:06.932Z,153449.09
2023-05-21T11:44:09.550Z,153242.97
2023-05-21T11:45:11.907Z,153242.97
2023-05-21T11:46:14.333Z,152855.50
2023-05-21T11:47:18.483Z,152963.31
2023-05-21T11:48:27.420Z,152909.38
2023-05-21T11:49:32.065Z,152855.50
2023-05-21T11:50:34.779Z,152808.84
2023-05-21T11:51:37.175Z,152898.38
2023-05-21T11:52:40.602Z,152821.13
2023-05-21T11:53:44.331Z,152903.25
2023-05-21T11:54:51.753Z,152814.97
2023-05-21T11:55:57.604Z,152866.50
2023-05-21T11:57:03.580Z,152911.81
2023-05-21T11:58:08.535Z,153009.94
2023-05-21T11:59:17.852Z,153179.16
2023-05-21T12:00:21.675Z,152897.16
2023-05-21T12:01:24.804Z,152876.28
2023-05-21T12:02:32.288Z,152768.44
2023-05-21T12:03:35.417Z,152563.78
2023-05-21T12:04:37.773Z,152593.22
2023-05-21T12:05:49.896Z,152661.81
2023-05-21T12:06:52.135Z,152546.59
2023-05-21T12:07:55.484Z,152650.75
2023-05-21T12:08:58.220Z,152697.34
2023-05-21T12:10:01.110Z,152678.94
2023-05-21T12:11:03.398Z,152585.84
2023-05-21T12:12:06.483Z,152632.41
2023-05-21T12:13:08.799Z,152485.38
2023-05-21T12:14:11.409Z,152441.31
2023-05-21T12:15:13.856Z,152333.53
2023-05-21T12:16:16.196Z,152279.59
2023-05-21T12:17:20.229Z,152251.44
2023-05-21T12:18:22.588Z,152356.75
2023-05-21T12:19:24.938Z,152313.91
2023-05-21T12:20:28.205Z,152255.09
2023-05-21T12:21:31.582Z,152306.59
2023-05-21T12:22:33.796Z,152443.75
2023-05-21T12:23:36.555Z,152531.94
2023-05-21T12:24:39.497Z,152460.91
2023-05-21T12:25:41.681Z,152443.75
2023-05-21T12:26:45.935Z,152395.97
2023-05-21T12:27:52.454Z,152416.75
2023-05-21T12:28:56.128Z,152464.59
2023-05-21T12:29:58.444Z,152512.31